• Join FlightAware (Why Join?)
  • Login
  • US Flag 
07:57PM EDT


 

Airport Tracker/Info


-or-


 

Live Flight TrackerFlight Track Log ✈ AWE3374 ✈ 14-Apr-2013 ✈ KDCA - KMHT

Flight Track Log - Related Links

Times and Time Zones

All times are in EDT time to prevent confusion due to time zone crossing. See the AWE3374 flight status page for this flight to view local times or setup timezone preferences in your user account.

Time Position Orientation Groundspeed Altitude Reporting Facility
EDT Latitude Longitude Course Direction KTS MPH feet Rate Location/Type
03:21PM 38.9167 -77.0833 83° East 207 238 2,800  Level Potomac TRACON
03:22PM 38.9667 -77.1500 314° West 253 291 5,600 3,060 Climbing Potomac TRACON
03:23PM 39.0200 -76.5566 67° East  Level FlightAware Approximate
03:23PM 39.0167 -77.1333 15° North 294 338 9,000  Level Potomac TRACON
03:24PM 39.0657 -76.4359 63° Northeast  Level FlightAware Approximate
03:25PM 39.1161 -76.3181 61° Northeast  Level FlightAware Approximate
03:25PM 39.0628 -76.8936 76° East 360 414 13,800  Level Washington Center
03:26PM 39.1516 -76.2007 83° East  Level FlightAware Approximate
03:26PM 39.0808 -76.7547 80° East 379 436 16,200  Level Washington Center
03:27PM 39.1650 -76.0672 83° East  Level FlightAware Approximate
03:27PM 39.0986 -76.6133 81° East 391 450 18,300  Level Washington Center
03:28PM 39.1208 -76.4639 79° East 407 468 20,500 2,160 Climbing Washington Center
03:29PM 39.1425 -76.3142 79° East 414 476 22,700 1,200 Climbing Washington Center
03:30PM 39.1622 -76.1403 82° East 438 504 23,000 180 Climbing Washington Center
03:31PM 39.1817 -75.9853 81° East 443 510 23,100 780 Climbing Washington Center
03:32PM 39.2258 -75.8408 68° East 436 502 24,600 1,140 Climbing Washington Center
03:33PM 39.3133 -75.7283 45° Northeast 429 494 25,400 1,320 Climbing Washington Center
03:34PM 39.4011 -75.6103 46° Northeast 435 501 27,300 1,440 Climbing Washington Center
03:35PM 39.4906 -75.4947 45° Northeast 440 506 28,300 780 Climbing Washington Center
03:36PM 39.5822 -75.3733 46° Northeast 454 522 28,900 300 Climbing Washington Center
03:37PM 39.6778 -75.2492 45° Northeast 460 529 29,000 -120 Climbing Washington Center
03:38PM 39.7667 -75.1219 48° Northeast 465 535 28,700 -1,440 Descending Washington Center
03:39PM 39.8536 -74.9994 47° Northeast 472 543 26,200 -1,740 Descending Washington Center
03:40PM 39.9422 -74.8700 48° Northeast 459 528 25,000 -600 Descending New York Center
03:41PM 40.0367 -74.7344 48° Northeast 452 520 25,000  Level New York Center
03:43PM 40.1153 -74.6197 48° Northeast 461 531 25,000  Level New York Center
03:43PM 40.2133 -74.4864 46° Northeast 454 522 25,000  Level New York Center
03:44PM 40.3106 -74.3800 40° Northeast 454 522 25,000  Level New York Center
03:45PM 40.4075 -74.2733 40° Northeast 448 516 25,000  Level New York Center
03:46PM 40.5044 -74.1719 38° Northeast 448 516 25,000  Level New York Center
03:47PM 40.5989 -74.0700 39° Northeast 443 510 25,000  Level New York Center
03:48PM 40.6956 -73.9625 40° Northeast 438 504 25,000  Level New York Center
03:51PM 40.9525 -73.7756 29° Northeast 432 497 25,000  Level Boston Center
03:52PM 41.0617 -73.7092 25° Northeast 424 488 25,000  Level Boston Center
03:53PM 41.1728 -73.6478 23° Northeast 419 482 25,000  Level Boston Center
03:54PM 41.2836 -73.5892 22° Northeast 419 482 25,000  Level Boston Center
03:55PM 41.3919 -73.5967 357° North 395 455 25,000  Level Boston Center
03:56PM 41.4981 -73.6153 353° North 378 435 25,000 -60 Level Boston Center
03:57PM 41.5875 -73.6308 353° North 378 435 24,900 -840 Descending Boston Center
03:58PM 41.6936 -73.6439 355° North 378 435 23,400 -960 Descending Boston Center
03:59PM 41.7956 -73.6625 352° North 378 435 23,000 -240 Descending Boston Center
04:00PM 41.8975 -73.6783 353° North 367 422 23,000  Level Boston Center
04:01PM 41.9997 -73.6917 354° North 367 422 23,000  Level Boston Center
04:02PM 42.1017 -73.7075 353° North 367 422 23,000  Level Boston Center
04:03PM 42.2097 -73.7239 354° North 367 422 23,000  Level Boston Center
04:04PM 42.3097 -73.7372 354° North 367 422 23,000  Level Boston Center
04:05PM 42.4075 -73.7475 356° North 362 417 23,000 -240 Level Boston Center
04:06PM 42.4961 -73.6508 39° Northeast 362 417 22,600 -1,260 Descending Boston Center
04:07PM 42.5311 -73.4825 74° East 375 432 20,500 -1,860 Descending Boston Center
04:08PM 42.5636 -73.3167 75° East 423 487 19,000 -780 Descending Boston Center
04:09PM 42.6003 -73.1594 72° East 434 499 19,000  Level Boston Center
04:10PM 42.6325 -73.0131 73° East 443 510 19,000  Level Boston Center
04:11PM 42.6769 -72.8383 71° East 438 504 19,000  Level Boston Center
04:12PM 42.7086 -72.6803 75° East 438 504 19,000 -1,020 Level Boston Center
04:13PM 42.7525 -72.4881 73° East 438 504 16,900 -2,280 Descending Boston Center
04:14PM 42.7839 -72.3383 74° East 427 491 14,600 -2,040 Descending Boston Center
04:15PM 42.8003 -72.2081 80° East 400 460 12,900 -1,680 Descending Boston Center
04:16PM 42.8103 -72.0636 85° East 363 418 10,900 -1,680 Descending Boston Center
04:17PM 42.8222 -71.9250 83° East 318 366 9,300 -1,740 Descending Boston Center
04:18PM 42.8300 -71.8200 84° East 302 348 7,500 -1,560 Descending Boston Center
04:19PM 42.8128 -71.7069 102° East 285 328 6,300 -1,260 Descending Boston Center
04:20PM 42.7933 -71.6139 106° East 285 328 5,000 -1,200 Descending Boston Center
04:21PM 42.7739 -71.5011 103° East 280 322 4,000 -540 Descending Boston Center
04:22PM 42.7564 -71.4136 105° East 274 315 4,000 -360 Level Boston Center
04:23PM 42.7639 -71.3372 82° East 193 222 3,400 -600 Descending Boston Center
04:24PM 42.8017 -71.3592 337° Northwest 103 119 2,900 -540 Descending Boston Center